Time,TemperatureF,DewpointF,PressureIn,WindDirection,WindDirectionDegrees,WindSpeedMPH,WindSpeedGustMPH,Humidity,HourlyPrecipIn,Conditions,Clouds,dailyrainin,SolarRadiationWatts/m^2,SoftwareType,DateUTC
2013-04-23 00:22:00,67.0,67.0,-100.00,East,80,3.0,7.0,100,0.00,,,0.09,0.000000,,2013-04-23 10:22:00,
2013-04-23 00:32:00,67.0,67.0,-100.00,East,80,3.0,7.0,100,0.00,,,0.09,0.000000,,2013-04-23 10:32:00,
2013-04-23 00:42:00,67.0,67.0,-100.00,East,80,3.0,7.0,100,0.00,,,0.09,0.000000,,2013-04-23 10:42:00,
2013-04-23 00:52:00,67.0,67.0,-100.00,East,80,3.0,7.0,100,0.00,,,0.09,0.000000,,2013-04-23 10:52:00,
2013-04-23 01:21:00,67.0,67.0,-100.00,ESE,102,3.0,13.0,100,0.00,,,0.09,0.000000,,2013-04-23 11:21:00,
2013-04-23 01:32:00,67.0,67.0,-100.00,ESE,102,3.0,13.0,100,0.00,,,0.09,0.000000,,2013-04-23 11:32:00,
2013-04-23 01:42:00,67.0,67.0,-100.00,ESE,102,3.0,13.0,100,0.00,,,0.09,0.000000,,2013-04-23 11:42:00,
2013-04-23 01:52:00,67.0,67.0,-100.00,ESE,102,3.0,13.0,100,0.00,,,0.09,0.000000,,2013-04-23 11:52:00,
2013-04-23 02:22:00,67.0,67.0,-100.00,ESE,104,5.0,12.0,100,0.00,,,-99.99,0.000000,,2013-04-23 12:22:00,
2013-04-23 02:32:00,67.0,67.0,-100.00,ESE,104,5.0,12.0,100,0.00,,,-99.99,0.000000,,2013-04-23 12:32:00,
2013-04-23 02:41:00,67.0,67.0,-100.00,ESE,104,5.0,12.0,100,0.00,,,-99.99,0.000000,,2013-04-23 12:41:00,
2013-04-23 02:51:00,67.0,67.0,-100.00,ESE,104,5.0,12.0,100,0.00,,,-99.99,0.000000,,2013-04-23 12:51:00,
2013-04-23 03:21:00,68.0,68.0,-100.00,ESE,114,4.0,10.0,100,0.00,,,0.06,0.000000,,2013-04-23 13:21:00,
2013-04-23 03:32:00,68.0,68.0,-100.00,ESE,114,4.0,10.0,100,0.00,,,0.06,0.000000,,2013-04-23 13:32:00,
2013-04-23 03:41:00,68.0,68.0,-100.00,ESE,114,4.0,10.0,100,0.00,,,0.06,0.000000,,2013-04-23 13:41:00,
2013-04-23 03:52:00,68.0,68.0,-100.00,ESE,114,4.0,10.0,100,0.00,,,0.06,0.000000,,2013-04-23 13:52:00,
2013-04-23 04:22:00,68.0,68.0,-100.00,SE,143,4.0,11.0,100,0.00,,,0.05,0.000000,,2013-04-23 14:22:00,
2013-04-23 04:32:00,68.0,68.0,-100.00,SE,143,4.0,11.0,100,0.00,,,0.05,0.000000,,2013-04-23 14:32:00,
2013-04-23 04:42:00,68.0,68.0,-100.00,SE,143,4.0,11.0,100,0.00,,,0.05,0.000000,,2013-04-23 14:42:00,
2013-04-23 04:52:00,68.0,68.0,-100.00,SE,143,4.0,11.0,100,0.00,,,0.05,0.000000,,2013-04-23 14:52:00,
2013-04-23 05:21:00,69.0,69.0,-100.00,SE,146,4.0,13.0,100,0.00,,,-99.99,0.000000,,2013-04-23 15:21:00,
2013-04-23 05:32:00,69.0,69.0,-100.00,SE,146,4.0,13.0,100,0.00,,,-99.99,0.000000,,2013-04-23 15:32:00,
2013-04-23 05:42:00,69.0,69.0,-100.00,SE,146,4.0,13.0,100,0.00,,,-99.99,0.000000,,2013-04-23 15:42:00,
2013-04-23 05:52:00,69.0,69.0,-100.00,SE,146,4.0,13.0,100,0.00,,,-99.99,0.000000,,2013-04-23 15:52:00,
2013-04-23 06:23:00,68.0,68.0,-100.00,SE,131,4.0,12.0,99,0.00,,,0.03,0.000000,,2013-04-23 16:23:00,
2013-04-23 06:33:00,68.0,68.0,-100.00,SE,131,4.0,12.0,99,0.00,,,0.03,0.000000,,2013-04-23 16:33:00,
2013-04-23 06:42:00,68.0,68.0,-100.00,SE,131,4.0,12.0,99,0.00,,,0.03,0.000000,,2013-04-23 16:42:00,
2013-04-23 06:52:00,68.0,68.0,-100.00,SE,131,4.0,12.0,99,0.00,,,0.03,0.000000,,2013-04-23 16:52:00,
2013-04-23 07:22:00,71.0,69.0,-100.00,SSW,195,9.0,15.0,93,0.00,,,0.03,23.000000,,2013-04-23 17:22:00,
2013-04-23 07:32:00,71.0,69.0,-100.00,SSW,195,9.0,15.0,93,0.00,,,0.03,23.000000,,2013-04-23 17:32:00,
2013-04-23 07:42:00,71.0,69.0,-100.00,SSW,195,9.0,15.0,93,0.00,,,0.03,23.000000,,2013-04-23 17:42:00,
2013-04-23 07:53:00,71.0,69.0,-100.00,SSW,195,9.0,15.0,93,0.00,,,0.03,23.000000,,2013-04-23 17:53:00,
2013-04-23 08:22:00,74.0,73.0,-100.00,SSW,204,9.0,16.0,97,0.01,,,0.04,102.000000,,2013-04-23 18:22:00,
2013-04-23 08:32:00,74.0,73.0,-100.00,SSW,204,9.0,16.0,97,0.01,,,0.04,102.000000,,2013-04-23 18:32:00,
2013-04-23 08:42:00,74.0,73.0,-100.00,SSW,204,9.0,16.0,97,0.01,,,0.04,102.000000,,2013-04-23 18:42:00,
2013-04-23 08:52:00,74.0,73.0,-100.00,SSW,204,9.0,16.0,97,0.01,,,0.04,102.000000,,2013-04-23 18:52:00,
2013-04-23 09:21:00,79.0,72.0,-100.00,South,172,7.0,22.0,78,0.00,,,0.04,221.000000,,2013-04-23 19:21:00,
2013-04-23 09:32:00,79.0,72.0,-100.00,South,172,7.0,22.0,78,0.00,,,0.04,221.000000,,2013-04-23 19:32:00,
2013-04-23 09:42:00,79.0,72.0,-100.00,South,172,7.0,22.0,78,0.00,,,0.04,221.000000,,2013-04-23 19:42:00,
2013-04-23 09:52:00,79.0,72.0,-100.00,South,172,7.0,22.0,78,0.00,,,0.04,221.000000,,2013-04-23 19:52:00,
2013-04-23 10:21:00,76.0,72.0,-100.00,SSW,200,9.0,18.0,88,0.01,,,0.05,161.000000,,2013-04-23 20:21:00,
2013-04-23 10:31:00,76.0,72.0,-100.00,SSW,200,9.0,18.0,88,0.01,,,0.05,161.000000,,2013-04-23 20:31:00,
2013-04-23 10:42:00,76.0,72.0,-100.00,SSW,200,9.0,18.0,88,0.01,,,0.05,161.000000,,2013-04-23 20:42:00,
2013-04-23 10:51:00,76.0,72.0,-100.00,SSW,200,9.0,18.0,88,0.01,,,0.05,161.000000,,2013-04-23 20:51:00,
2013-04-23 11:21:00,76.0,75.0,-100.00,SW,227,12.0,20.0,96,0.02,,,0.07,145.000000,,2013-04-23 21:21:00,
2013-04-23 11:32:00,76.0,75.0,-100.00,SW,227,12.0,20.0,96,0.02,,,0.07,145.000000,,2013-04-23 21:32:00,
2013-04-23 11:43:00,76.0,75.0,-100.00,SW,227,12.0,20.0,96,0.02,,,0.07,145.000000,,2013-04-23 21:43:00,
2013-04-23 11:52:00,76.0,75.0,-100.00,SW,227,12.0,20.0,96,0.02,,,0.07,145.000000,,2013-04-23 21:52:00,
2013-04-23 12:22:00,79.0,74.0,-100.00,SW,222,10.0,24.0,84,0.00,,,0.07,239.000000,,2013-04-23 22:22:00,
2013-04-23 12:33:00,79.0,74.0,-100.00,SW,222,10.0,24.0,84,0.00,,,0.07,239.000000,,2013-04-23 22:33:00,
2013-04-23 12:42:00,79.0,74.0,-100.00,SW,222,10.0,24.0,84,0.00,,,0.07,239.000000,,2013-04-23 22:42:00,
2013-04-23 12:52:00,79.0,74.0,-100.00,SW,222,10.0,24.0,84,0.00,,,0.07,239.000000,,2013-04-23 22:52:00,
2013-04-23 13:22:00,72.0,71.0,-100.00,NNW,329,8.0,16.0,98,0.00,,,0.05,239.000000,,2013-04-23 23:22:00,
2013-04-23 13:32:00,72.0,71.0,-100.00,NNW,329,8.0,16.0,98,0.00,,,0.05,239.000000,,2013-04-23 23:32:00,
2013-04-23 13:42:00,72.0,71.0,-100.00,NNW,329,8.0,16.0,98,0.00,,,0.05,239.000000,,2013-04-23 23:42:00,
2013-04-23 13:52:00,72.0,71.0,-100.00,NNW,329,8.0,16.0,98,0.00,,,0.05,239.000000,,2013-04-23 23:52:00,
2013-04-23 14:21:00,73.0,73.0,-100.00,NNW,335,7.0,16.0,100,0.00,,,-99.99,240.000000,,2013-04-24 00:21:00,
2013-04-23 14:32:00,73.0,73.0,-100.00,NNW,335,7.0,16.0,100,0.00,,,-99.99,240.000000,,2013-04-24 00:32:00,
2013-04-23 14:41:00,73.0,73.0,-100.00,NNW,335,7.0,16.0,100,0.00,,,-99.99,240.000000,,2013-04-24 00:41:00,
2013-04-23 14:51:00,73.0,73.0,-100.00,NNW,335,7.0,16.0,100,0.00,,,-99.99,240.000000,,2013-04-24 00:51:00,
2013-04-23 15:21:00,75.0,75.0,-100.00,NNW,327,7.0,14.0,100,0.00,,,0.04,299.000000,,2013-04-24 01:21:00,
2013-04-23 15:32:00,75.0,75.0,-100.00,NNW,327,7.0,14.0,100,0.00,,,0.04,299.000000,,2013-04-24 01:32:00,
2013-04-23 15:42:00,75.0,75.0,-100.00,NNW,327,7.0,14.0,100,0.00,,,0.04,299.000000,,2013-04-24 01:42:00,
2013-04-23 15:52:00,75.0,75.0,-100.00,NNW,327,7.0,14.0,100,0.00,,,0.04,299.000000,,2013-04-24 01:52:00,
2013-04-23 16:26:00,74.0,74.0,-100.00,NNW,345,6.0,15.0,99,0.00,,,0.04,445.000000,,2013-04-24 02:26:00,
2013-04-23 16:46:00,74.0,74.0,-100.00,NNW,345,6.0,15.0,99,0.00,,,0.04,445.000000,,2013-04-24 02:46:00,
2013-04-23 16:53:00,74.0,74.0,-100.00,NNW,345,6.0,15.0,99,0.00,,,0.04,445.000000,,2013-04-24 02:53:00,
2013-04-23 17:26:00,74.0,74.0,-100.00,NE,44,5.0,15.0,100,0.00,,,0.04,412.000000,,2013-04-24 03:26:00,
2013-04-23 17:37:00,74.0,74.0,-100.00,NE,44,5.0,15.0,100,0.00,,,0.04,412.000000,,2013-04-24 03:37:00,
2013-04-23 18:23:00,71.0,71.0,-100.00,NNW,329,6.0,13.0,100,0.00,,,0.04,374.000000,,2013-04-24 04:23:00,
2013-04-23 18:33:00,71.0,71.0,-100.00,NNW,329,6.0,13.0,100,0.00,,,0.04,374.000000,,2013-04-24 04:33:00,
2013-04-23 18:43:00,71.0,71.0,-100.00,NNW,329,6.0,13.0,100,0.00,,,0.04,374.000000,,2013-04-24 04:43:00,
2013-04-23 18:52:00,71.0,71.0,-100.00,NNW,329,6.0,13.0,100,0.00,,,0.04,374.000000,,2013-04-24 04:52:00,
2013-04-23 19:21:00,70.0,70.0,-100.00,NW,325,5.0,13.0,100,0.00,,,0.04,36.000000,,2013-04-24 05:21:00,
2013-04-23 19:32:00,70.0,70.0,-100.00,NW,325,5.0,13.0,100,0.00,,,0.04,36.000000,,2013-04-24 05:32:00,
2013-04-23 19:42:00,70.0,70.0,-100.00,NW,325,5.0,13.0,100,0.00,,,0.04,36.000000,,2013-04-24 05:42:00,
2013-04-23 19:51:00,70.0,70.0,-100.00,NW,325,5.0,13.0,100,0.00,,,0.04,36.000000,,2013-04-24 05:51:00,
2013-04-23 20:21:00,69.0,69.0,-100.00,East,97,3.0,9.0,100,0.00,,,0.04,0.000000,,2013-04-24 06:21:00,
2013-04-23 20:32:00,69.0,69.0,-100.00,East,97,3.0,9.0,100,0.00,,,0.04,0.000000,,2013-04-24 06:32:00,
2013-04-23 20:42:00,69.0,69.0,-100.00,East,97,3.0,9.0,100,0.00,,,0.04,0.000000,,2013-04-24 06:42:00,
2013-04-23 20:51:00,69.0,69.0,-100.00,East,97,3.0,9.0,100,0.00,,,0.04,0.000000,,2013-04-24 06:51:00,
2013-04-23 21:22:00,69.0,69.0,-100.00,NNW,343,2.0,7.0,100,0.00,,,0.04,0.000000,,2013-04-24 07:22:00,
2013-04-23 21:32:00,69.0,69.0,-100.00,NNW,343,2.0,7.0,100,0.00,,,0.04,0.000000,,2013-04-24 07:32:00,
2013-04-23 21:41:00,69.0,69.0,-100.00,NNW,343,2.0,7.0,100,0.00,,,0.04,0.000000,,2013-04-24 07:41:00,
2013-04-23 21:52:00,69.0,69.0,-100.00,NNW,343,2.0,7.0,100,0.00,,,0.04,0.000000,,2013-04-24 07:52:00,
2013-04-23 22:21:00,66.0,66.0,-100.00,WSW,240,1.0,4.0,100,0.00,,,0.04,0.000000,,2013-04-24 08:21:00,
2013-04-23 22:33:00,66.0,66.0,-100.00,WSW,240,1.0,4.0,100,0.00,,,0.04,0.000000,,2013-04-24 08:33:00,
2013-04-23 22:42:00,66.0,66.0,-100.00,WSW,240,1.0,4.0,100,0.00,,,0.04,0.000000,,2013-04-24 08:42:00,
2013-04-23 22:51:00,66.0,66.0,-100.00,WSW,240,1.0,4.0,100,0.00,,,0.04,0.000000,,2013-04-24 08:51:00,
2013-04-23 23:21:00,67.0,67.0,-100.00,North,6,1.0,3.0,100,0.00,,,0.04,0.000000,,2013-04-24 09:21:00,
2013-04-23 23:33:00,67.0,67.0,-100.00,North,6,1.0,3.0,100,0.00,,,0.04,0.000000,,2013-04-24 09:33:00,
2013-04-23 23:42:00,67.0,67.0,-100.00,North,6,1.0,3.0,100,0.00,,,0.04,0.000000,,2013-04-24 09:42:00,
2013-04-23 23:53:00,67.0,67.0,-100.00,North,6,1.0,3.0,100,0.00,,,0.04,0.000000,,2013-04-24 09:53:00,